<?xml version="1.0" encoding="UTF-8" standalone="no" ?>
<gpx xmlns="http://www.topografix.com/GPX/1/1" xmlns:xsi="http://www.w3.org/2001/XMLSchema-instance" xsi:schemaLocation="http://www.topografix.com/GPX/1/1 http://www.topografix.com/GPX/1/1/gpx.xsd" version="1.1" creator="VisuGPX - https://www.visugpx.com">
  <metadata>
    <name>35_km_les_pepinieré 18 juin 2023</name>
  </metadata>
  <trk>
    <name><![CDATA[35 km les pepiniere 2  rando du 18 juin-4608772]]></name>
    <extensions>
      <line xmlns="http://www.topografix.com/GPX/gpx_style/0/2">
        <color>0000FF</color>
        <width>4</width>
      </line>
    </extensions>
    <trkseg>
      <trkpt lat="48.89266" lon="-0.2036">
        <ele>143</ele>
        <time>2023-06-16T19:10:45Z</time>
      </trkpt>
      <trkpt lat="48.89241" lon="-0.20354">
        <ele>143</ele>
        <time>2023-06-16T19:10:51Z</time>
      </trkpt>
      <trkpt lat="48.8923" lon="-0.20341">
        <ele>143</ele>
        <time>2023-06-16T19:10:54Z</time>
      </trkpt>
      <trkpt lat="48.89228" lon="-0.20324">
        <ele>143</ele>
        <time>2023-06-16T19:10:57Z</time>
      </trkpt>
      <trkpt lat="48.89254" lon="-0.20249">
        <ele>141</ele>
        <time>2023-06-16T19:11:10Z</time>
      </trkpt>
      <trkpt lat="48.89279" lon="-0.20187">
        <ele>140</ele>
        <time>2023-06-16T19:11:21Z</time>
      </trkpt>
      <trkpt lat="48.89223" lon="-0.20134">
        <ele>141</ele>
        <time>2023-06-16T19:11:36Z</time>
      </trkpt>
      <trkpt lat="48.89152" lon="-0.203">
        <ele>147</ele>
        <time>2023-06-16T19:12:07Z</time>
      </trkpt>
      <trkpt lat="48.89138" lon="-0.20305">
        <ele>147</ele>
        <time>2023-06-16T19:12:10Z</time>
      </trkpt>
      <trkpt lat="48.89096" lon="-0.20315">
        <ele>149</ele>
        <time>2023-06-16T19:12:20Z</time>
      </trkpt>
      <trkpt lat="48.89068" lon="-0.2027">
        <ele>152</ele>
        <time>2023-06-16T19:12:30Z</time>
      </trkpt>
      <trkpt lat="48.89018" lon="-0.20216">
        <ele>155</ele>
        <time>2023-06-16T19:12:44Z</time>
      </trkpt>
      <trkpt lat="48.88923" lon="-0.20156">
        <ele>158</ele>
        <time>2023-06-16T19:13:08Z</time>
      </trkpt>
      <trkpt lat="48.88879" lon="-0.20152">
        <ele>157</ele>
        <time>2023-06-16T19:13:18Z</time>
      </trkpt>
      <trkpt lat="48.88844" lon="-0.20168">
        <ele>156</ele>
        <time>2023-06-16T19:13:27Z</time>
      </trkpt>
      <trkpt lat="48.88768" lon="-0.2022">
        <ele>156</ele>
        <time>2023-06-16T19:13:46Z</time>
      </trkpt>
      <trkpt lat="48.88708" lon="-0.2024">
        <ele>160</ele>
        <time>2023-06-16T19:14:01Z</time>
      </trkpt>
      <trkpt lat="48.88621" lon="-0.20274">
        <ele>162</ele>
        <time>2023-06-16T19:14:22Z</time>
      </trkpt>
      <trkpt lat="48.88581" lon="-0.20299">
        <ele>162</ele>
        <time>2023-06-16T19:14:32Z</time>
      </trkpt>
      <trkpt lat="48.88483" lon="-0.20438">
        <ele>163</ele>
        <time>2023-06-16T19:15:03Z</time>
      </trkpt>
      <trkpt lat="48.88433" lon="-0.20544">
        <ele>167</ele>
        <time>2023-06-16T19:15:23Z</time>
      </trkpt>
      <trkpt lat="48.88385" lon="-0.20584">
        <ele>171</ele>
        <time>2023-06-16T19:15:36Z</time>
      </trkpt>
      <trkpt lat="48.88358" lon="-0.20588">
        <ele>172</ele>
        <time>2023-06-16T19:15:42Z</time>
      </trkpt>
      <trkpt lat="48.8835" lon="-0.2057">
        <ele>172</ele>
        <time>2023-06-16T19:15:45Z</time>
      </trkpt>
      <trkpt lat="48.88284" lon="-0.20622">
        <ele>174</ele>
        <time>2023-06-16T19:16:03Z</time>
      </trkpt>
      <trkpt lat="48.88231" lon="-0.20678">
        <ele>174</ele>
        <time>2023-06-16T19:16:18Z</time>
      </trkpt>
      <trkpt lat="48.88232" lon="-0.20696">
        <ele>175</ele>
        <time>2023-06-16T19:16:21Z</time>
      </trkpt>
      <trkpt lat="48.88221" lon="-0.20707">
        <ele>175</ele>
        <time>2023-06-16T19:16:24Z</time>
      </trkpt>
      <trkpt lat="48.88206" lon="-0.20708">
        <ele>175</ele>
        <time>2023-06-16T19:16:27Z</time>
      </trkpt>
      <trkpt lat="48.88178" lon="-0.2074">
        <ele>176</ele>
        <time>2023-06-16T19:16:35Z</time>
      </trkpt>
      <trkpt lat="48.8813" lon="-0.20809">
        <ele>176</ele>
        <time>2023-06-16T19:16:51Z</time>
      </trkpt>
      <trkpt lat="48.88163" lon="-0.20868">
        <ele>174</ele>
        <time>2023-06-16T19:17:03Z</time>
      </trkpt>
      <trkpt lat="48.88106" lon="-0.20978">
        <ele>173</ele>
        <time>2023-06-16T19:17:24Z</time>
      </trkpt>
      <trkpt lat="48.87828" lon="-0.21396">
        <ele>175</ele>
        <time>2023-06-16T19:18:56Z</time>
      </trkpt>
      <trkpt lat="48.8774" lon="-0.21534">
        <ele>177</ele>
        <time>2023-06-16T19:19:25Z</time>
      </trkpt>
      <trkpt lat="48.87634" lon="-0.21767">
        <ele>180</ele>
        <time>2023-06-16T19:20:09Z</time>
      </trkpt>
      <trkpt lat="48.87603" lon="-0.21829">
        <ele>180</ele>
        <time>2023-06-16T19:20:21Z</time>
      </trkpt>
      <trkpt lat="48.87474" lon="-0.21946">
        <ele>185</ele>
        <time>2023-06-16T19:20:56Z</time>
      </trkpt>
      <trkpt lat="48.87268" lon="-0.22172">
        <ele>191</ele>
        <time>2023-06-16T19:21:55Z</time>
      </trkpt>
      <trkpt lat="48.8708" lon="-0.22344">
        <ele>199</ele>
        <time>2023-06-16T19:22:46Z</time>
      </trkpt>
      <trkpt lat="48.87066" lon="-0.22364">
        <ele>200</ele>
        <time>2023-06-16T19:22:51Z</time>
      </trkpt>
      <trkpt lat="48.87053" lon="-0.22395">
        <ele>200</ele>
        <time>2023-06-16T19:22:56Z</time>
      </trkpt>
      <trkpt lat="48.87025" lon="-0.22414">
        <ele>202</ele>
        <time>2023-06-16T19:23:03Z</time>
      </trkpt>
      <trkpt lat="48.86981" lon="-0.22419">
        <ele>203</ele>
        <time>2023-06-16T19:23:14Z</time>
      </trkpt>
      <trkpt lat="48.86977" lon="-0.22468">
        <ele>202</ele>
        <time>2023-06-16T19:23:21Z</time>
      </trkpt>
      <trkpt lat="48.86957" lon="-0.22517">
        <ele>200</ele>
        <time>2023-06-16T19:23:30Z</time>
      </trkpt>
      <trkpt lat="48.86873" lon="-0.22614">
        <ele>199</ele>
        <time>2023-06-16T19:23:55Z</time>
      </trkpt>
      <trkpt lat="48.86751" lon="-0.22785">
        <ele>201</ele>
        <time>2023-06-16T19:24:34Z</time>
      </trkpt>
      <trkpt lat="48.86632" lon="-0.22943">
        <ele>207</ele>
        <time>2023-06-16T19:25:11Z</time>
      </trkpt>
      <trkpt lat="48.86605" lon="-0.22962">
        <ele>207</ele>
        <time>2023-06-16T19:25:17Z</time>
      </trkpt>
      <trkpt lat="48.86625" lon="-0.23075">
        <ele>208</ele>
        <time>2023-06-16T19:25:35Z</time>
      </trkpt>
      <trkpt lat="48.86669" lon="-0.23267">
        <ele>211</ele>
        <time>2023-06-16T19:26:07Z</time>
      </trkpt>
      <trkpt lat="48.86713" lon="-0.23415">
        <ele>211</ele>
        <time>2023-06-16T19:26:32Z</time>
      </trkpt>
      <trkpt lat="48.86776" lon="-0.23744">
        <ele>216</ele>
        <time>2023-06-16T19:27:24Z</time>
      </trkpt>
      <trkpt lat="48.86838" lon="-0.23959">
        <ele>219</ele>
        <time>2023-06-16T19:28:00Z</time>
      </trkpt>
      <trkpt lat="48.8686" lon="-0.24007">
        <ele>219</ele>
        <time>2023-06-16T19:28:09Z</time>
      </trkpt>
      <trkpt lat="48.86886" lon="-0.24106">
        <ele>220</ele>
        <time>2023-06-16T19:28:26Z</time>
      </trkpt>
      <trkpt lat="48.86918" lon="-0.24192">
        <ele>219</ele>
        <time>2023-06-16T19:28:41Z</time>
      </trkpt>
      <trkpt lat="48.86962" lon="-0.24386">
        <ele>217</ele>
        <time>2023-06-16T19:29:12Z</time>
      </trkpt>
      <trkpt lat="48.87027" lon="-0.24576">
        <ele>212</ele>
        <time>2023-06-16T19:29:45Z</time>
      </trkpt>
      <trkpt lat="48.86908" lon="-0.24817">
        <ele>218</ele>
        <time>2023-06-16T19:30:32Z</time>
      </trkpt>
      <trkpt lat="48.86682" lon="-0.25161">
        <ele>229</ele>
        <time>2023-06-16T19:31:46Z</time>
      </trkpt>
      <trkpt lat="48.86577" lon="-0.25241">
        <ele>227</ele>
        <time>2023-06-16T19:32:14Z</time>
      </trkpt>
      <trkpt lat="48.86604" lon="-0.25428">
        <ele>228</ele>
        <time>2023-06-16T19:32:43Z</time>
      </trkpt>
      <trkpt lat="48.86619" lon="-0.25598">
        <ele>231</ele>
        <time>2023-06-16T19:33:09Z</time>
      </trkpt>
      <trkpt lat="48.86645" lon="-0.25717">
        <ele>232</ele>
        <time>2023-06-16T19:33:29Z</time>
      </trkpt>
      <trkpt lat="48.86679" lon="-0.25792">
        <ele>232</ele>
        <time>2023-06-16T19:33:43Z</time>
      </trkpt>
      <trkpt lat="48.86757" lon="-0.25985">
        <ele>235</ele>
        <time>2023-06-16T19:34:17Z</time>
      </trkpt>
      <trkpt lat="48.86817" lon="-0.26117">
        <ele>236</ele>
        <time>2023-06-16T19:34:42Z</time>
      </trkpt>
      <trkpt lat="48.86823" lon="-0.2616">
        <ele>235</ele>
        <time>2023-06-16T19:34:49Z</time>
      </trkpt>
      <trkpt lat="48.8684" lon="-0.26373">
        <ele>237</ele>
        <time>2023-06-16T19:35:22Z</time>
      </trkpt>
      <trkpt lat="48.8686" lon="-0.26557">
        <ele>236</ele>
        <time>2023-06-16T19:35:51Z</time>
      </trkpt>
      <trkpt lat="48.86871" lon="-0.26635">
        <ele>237</ele>
        <time>2023-06-16T19:36:03Z</time>
      </trkpt>
      <trkpt lat="48.86911" lon="-0.26788">
        <ele>240</ele>
        <time>2023-06-16T19:36:28Z</time>
      </trkpt>
      <trkpt lat="48.86936" lon="-0.2685">
        <ele>240</ele>
        <time>2023-06-16T19:36:39Z</time>
      </trkpt>
      <trkpt lat="48.87001" lon="-0.26933">
        <ele>238</ele>
        <time>2023-06-16T19:36:59Z</time>
      </trkpt>
      <trkpt lat="48.87053" lon="-0.27007">
        <ele>237</ele>
        <time>2023-06-16T19:37:16Z</time>
      </trkpt>
      <trkpt lat="48.87095" lon="-0.27099">
        <ele>231</ele>
        <time>2023-06-16T19:37:33Z</time>
      </trkpt>
      <trkpt lat="48.87177" lon="-0.27182">
        <ele>225</ele>
        <time>2023-06-16T19:37:56Z</time>
      </trkpt>
      <trkpt lat="48.872" lon="-0.2726">
        <ele>219</ele>
        <time>2023-06-16T19:38:09Z</time>
      </trkpt>
      <trkpt lat="48.87213" lon="-0.27273">
        <ele>219</ele>
        <time>2023-06-16T19:38:13Z</time>
      </trkpt>
      <trkpt lat="48.87252" lon="-0.27276">
        <ele>219</ele>
        <time>2023-06-16T19:38:22Z</time>
      </trkpt>
      <trkpt lat="48.8726" lon="-0.27371">
        <ele>221</ele>
        <time>2023-06-16T19:38:36Z</time>
      </trkpt>
      <trkpt lat="48.8725" lon="-0.27502">
        <ele>225</ele>
        <time>2023-06-16T19:38:57Z</time>
      </trkpt>
      <trkpt lat="48.87263" lon="-0.27611">
        <ele>228</ele>
        <time>2023-06-16T19:39:14Z</time>
      </trkpt>
      <trkpt lat="48.87282" lon="-0.27633">
        <ele>229</ele>
        <time>2023-06-16T19:39:19Z</time>
      </trkpt>
      <trkpt lat="48.87329" lon="-0.27655">
        <ele>230</ele>
        <time>2023-06-16T19:39:31Z</time>
      </trkpt>
      <trkpt lat="48.87355" lon="-0.27682">
        <ele>230</ele>
        <time>2023-06-16T19:39:38Z</time>
      </trkpt>
      <trkpt lat="48.87377" lon="-0.27716">
        <ele>229</ele>
        <time>2023-06-16T19:39:45Z</time>
      </trkpt>
      <trkpt lat="48.87408" lon="-0.27771">
        <ele>229</ele>
        <time>2023-06-16T19:39:57Z</time>
      </trkpt>
      <trkpt lat="48.87441" lon="-0.27805">
        <ele>229</ele>
        <time>2023-06-16T19:40:06Z</time>
      </trkpt>
      <trkpt lat="48.87462" lon="-0.27813">
        <ele>229</ele>
        <time>2023-06-16T19:40:11Z</time>
      </trkpt>
      <trkpt lat="48.87463" lon="-0.27836">
        <ele>229</ele>
        <time>2023-06-16T19:40:15Z</time>
      </trkpt>
      <trkpt lat="48.87608" lon="-0.28199">
        <ele>220</ele>
        <time>2023-06-16T19:41:20Z</time>
      </trkpt>
      <trkpt lat="48.87694" lon="-0.28425">
        <ele>219</ele>
        <time>2023-06-16T19:42:00Z</time>
      </trkpt>
      <trkpt lat="48.87709" lon="-0.28486">
        <ele>219</ele>
        <time>2023-06-16T19:42:10Z</time>
      </trkpt>
      <trkpt lat="48.87733" lon="-0.28547">
        <ele>220</ele>
        <time>2023-06-16T19:42:21Z</time>
      </trkpt>
      <trkpt lat="48.8775" lon="-0.28611">
        <ele>220</ele>
        <time>2023-06-16T19:42:31Z</time>
      </trkpt>
      <trkpt lat="48.8776" lon="-0.28673">
        <ele>220</ele>
        <time>2023-06-16T19:42:41Z</time>
      </trkpt>
      <trkpt lat="48.87798" lon="-0.28801">
        <ele>218</ele>
        <time>2023-06-16T19:43:03Z</time>
      </trkpt>
      <trkpt lat="48.87853" lon="-0.28844">
        <ele>218</ele>
        <time>2023-06-16T19:43:17Z</time>
      </trkpt>
      <trkpt lat="48.87773" lon="-0.28968">
        <ele>217</ele>
        <time>2023-06-16T19:43:44Z</time>
      </trkpt>
      <trkpt lat="48.87683" lon="-0.2904">
        <ele>213</ele>
        <time>2023-06-16T19:44:08Z</time>
      </trkpt>
      <trkpt lat="48.87528" lon="-0.29153">
        <ele>206</ele>
        <time>2023-06-16T19:44:48Z</time>
      </trkpt>
      <trkpt lat="48.87485" lon="-0.29193">
        <ele>204</ele>
        <time>2023-06-16T19:45:00Z</time>
      </trkpt>
      <trkpt lat="48.87451" lon="-0.29219">
        <ele>202</ele>
        <time>2023-06-16T19:45:08Z</time>
      </trkpt>
      <trkpt lat="48.87416" lon="-0.29303">
        <ele>201</ele>
        <time>2023-06-16T19:45:24Z</time>
      </trkpt>
      <trkpt lat="48.87387" lon="-0.29359">
        <ele>201</ele>
        <time>2023-06-16T19:45:35Z</time>
      </trkpt>
      <trkpt lat="48.8735" lon="-0.29409">
        <ele>200</ele>
        <time>2023-06-16T19:45:46Z</time>
      </trkpt>
      <trkpt lat="48.87279" lon="-0.2943">
        <ele>197</ele>
        <time>2023-06-16T19:46:03Z</time>
      </trkpt>
      <trkpt lat="48.87146" lon="-0.29485">
        <ele>197</ele>
        <time>2023-06-16T19:46:35Z</time>
      </trkpt>
      <trkpt lat="48.87085" lon="-0.29549">
        <ele>197</ele>
        <time>2023-06-16T19:46:53Z</time>
      </trkpt>
      <trkpt lat="48.8695" lon="-0.2968">
        <ele>199</ele>
        <time>2023-06-16T19:47:30Z</time>
      </trkpt>
      <trkpt lat="48.86963" lon="-0.29712">
        <ele>200</ele>
        <time>2023-06-16T19:47:36Z</time>
      </trkpt>
      <trkpt lat="48.86983" lon="-0.29752">
        <ele>201</ele>
        <time>2023-06-16T19:47:43Z</time>
      </trkpt>
      <trkpt lat="48.87003" lon="-0.29806">
        <ele>203</ele>
        <time>2023-06-16T19:47:53Z</time>
      </trkpt>
      <trkpt lat="48.87008" lon="-0.29836">
        <ele>204</ele>
        <time>2023-06-16T19:47:58Z</time>
      </trkpt>
      <trkpt lat="48.87006" lon="-0.29882">
        <ele>204</ele>
        <time>2023-06-16T19:48:05Z</time>
      </trkpt>
      <trkpt lat="48.87008" lon="-0.2991">
        <ele>204</ele>
        <time>2023-06-16T19:48:09Z</time>
      </trkpt>
      <trkpt lat="48.87041" lon="-0.29976">
        <ele>203</ele>
        <time>2023-06-16T19:48:22Z</time>
      </trkpt>
      <trkpt lat="48.87044" lon="-0.29995">
        <ele>203</ele>
        <time>2023-06-16T19:48:25Z</time>
      </trkpt>
      <trkpt lat="48.87071" lon="-0.30054">
        <ele>203</ele>
        <time>2023-06-16T19:48:36Z</time>
      </trkpt>
      <trkpt lat="48.87117" lon="-0.30165">
        <ele>204</ele>
        <time>2023-06-16T19:48:56Z</time>
      </trkpt>
      <trkpt lat="48.87112" lon="-0.30183">
        <ele>204</ele>
        <time>2023-06-16T19:48:59Z</time>
      </trkpt>
      <trkpt lat="48.87018" lon="-0.30277">
        <ele>204</ele>
        <time>2023-06-16T19:49:25Z</time>
      </trkpt>
      <trkpt lat="48.8698" lon="-0.30311">
        <ele>204</ele>
        <time>2023-06-16T19:49:36Z</time>
      </trkpt>
      <trkpt lat="48.86972" lon="-0.30327">
        <ele>204</ele>
        <time>2023-06-16T19:49:39Z</time>
      </trkpt>
      <trkpt lat="48.86925" lon="-0.30574">
        <ele>206</ele>
        <time>2023-06-16T19:50:18Z</time>
      </trkpt>
      <trkpt lat="48.86904" lon="-0.30641">
        <ele>207</ele>
        <time>2023-06-16T19:50:30Z</time>
      </trkpt>
      <trkpt lat="48.86867" lon="-0.30705">
        <ele>209</ele>
        <time>2023-06-16T19:50:43Z</time>
      </trkpt>
      <trkpt lat="48.86843" lon="-0.30717">
        <ele>209</ele>
        <time>2023-06-16T19:50:49Z</time>
      </trkpt>
      <trkpt lat="48.8679" lon="-0.30751">
        <ele>209</ele>
        <time>2023-06-16T19:51:02Z</time>
      </trkpt>
      <trkpt lat="48.86729" lon="-0.30806">
        <ele>208</ele>
        <time>2023-06-16T19:51:19Z</time>
      </trkpt>
      <trkpt lat="48.86747" lon="-0.30872">
        <ele>209</ele>
        <time>2023-06-16T19:51:30Z</time>
      </trkpt>
      <trkpt lat="48.8677" lon="-0.31019">
        <ele>211</ele>
        <time>2023-06-16T19:51:53Z</time>
      </trkpt>
      <trkpt lat="48.86796" lon="-0.31058">
        <ele>211</ele>
        <time>2023-06-16T19:52:01Z</time>
      </trkpt>
      <trkpt lat="48.86809" lon="-0.31111">
        <ele>211</ele>
        <time>2023-06-16T19:52:10Z</time>
      </trkpt>
      <trkpt lat="48.86827" lon="-0.31167">
        <ele>210</ele>
        <time>2023-06-16T19:52:20Z</time>
      </trkpt>
      <trkpt lat="48.86767" lon="-0.31222">
        <ele>211</ele>
        <time>2023-06-16T19:52:36Z</time>
      </trkpt>
      <trkpt lat="48.86549" lon="-0.31252">
        <ele>212</ele>
        <time>2023-06-16T19:53:27Z</time>
      </trkpt>
      <trkpt lat="48.86484" lon="-0.31268">
        <ele>211</ele>
        <time>2023-06-16T19:53:42Z</time>
      </trkpt>
      <trkpt lat="48.86455" lon="-0.31261">
        <ele>211</ele>
        <time>2023-06-16T19:53:49Z</time>
      </trkpt>
      <trkpt lat="48.86431" lon="-0.3125">
        <ele>211</ele>
        <time>2023-06-16T19:53:55Z</time>
      </trkpt>
      <trkpt lat="48.86304" lon="-0.31265">
        <ele>212</ele>
        <time>2023-06-16T19:54:25Z</time>
      </trkpt>
      <trkpt lat="48.86226" lon="-0.31249">
        <ele>210</ele>
        <time>2023-06-16T19:54:43Z</time>
      </trkpt>
      <trkpt lat="48.86094" lon="-0.31282">
        <ele>206</ele>
        <time>2023-06-16T19:55:15Z</time>
      </trkpt>
      <trkpt lat="48.86064" lon="-0.31286">
        <ele>204</ele>
        <time>2023-06-16T19:55:22Z</time>
      </trkpt>
      <trkpt lat="48.86034" lon="-0.31196">
        <ele>201</ele>
        <time>2023-06-16T19:55:37Z</time>
      </trkpt>
      <trkpt lat="48.86022" lon="-0.31171">
        <ele>200</ele>
        <time>2023-06-16T19:55:42Z</time>
      </trkpt>
      <trkpt lat="48.86003" lon="-0.31147">
        <ele>198</ele>
        <time>2023-06-16T19:55:48Z</time>
      </trkpt>
      <trkpt lat="48.86015" lon="-0.31102">
        <ele>198</ele>
        <time>2023-06-16T19:55:55Z</time>
      </trkpt>
      <trkpt lat="48.86063" lon="-0.30998">
        <ele>200</ele>
        <time>2023-06-16T19:56:15Z</time>
      </trkpt>
      <trkpt lat="48.86139" lon="-0.30862">
        <ele>197</ele>
        <time>2023-06-16T19:56:42Z</time>
      </trkpt>
      <trkpt lat="48.86167" lon="-0.30807">
        <ele>195</ele>
        <time>2023-06-16T19:56:53Z</time>
      </trkpt>
      <trkpt lat="48.86193" lon="-0.30779">
        <ele>195</ele>
        <time>2023-06-16T19:57:00Z</time>
      </trkpt>
      <trkpt lat="48.8628" lon="-0.30716">
        <ele>196</ele>
        <time>2023-06-16T19:57:23Z</time>
      </trkpt>
      <trkpt lat="48.86375" lon="-0.30669">
        <ele>192</ele>
        <time>2023-06-16T19:57:46Z</time>
      </trkpt>
      <trkpt lat="48.8639" lon="-0.3065">
        <ele>190</ele>
        <time>2023-06-16T19:57:51Z</time>
      </trkpt>
      <trkpt lat="48.86396" lon="-0.30632">
        <ele>189</ele>
        <time>2023-06-16T19:57:54Z</time>
      </trkpt>
      <trkpt lat="48.86389" lon="-0.30579">
        <ele>186</ele>
        <time>2023-06-16T19:58:02Z</time>
      </trkpt>
      <trkpt lat="48.8639" lon="-0.30417">
        <ele>178</ele>
        <time>2023-06-16T19:58:27Z</time>
      </trkpt>
      <trkpt lat="48.86388" lon="-0.30353">
        <ele>177</ele>
        <time>2023-06-16T19:58:37Z</time>
      </trkpt>
      <trkpt lat="48.864" lon="-0.30304">
        <ele>177</ele>
        <time>2023-06-16T19:58:45Z</time>
      </trkpt>
      <trkpt lat="48.86351" lon="-0.30243">
        <ele>175</ele>
        <time>2023-06-16T19:58:59Z</time>
      </trkpt>
      <trkpt lat="48.86322" lon="-0.30222">
        <ele>175</ele>
        <time>2023-06-16T19:59:07Z</time>
      </trkpt>
      <trkpt lat="48.86275" lon="-0.30197">
        <ele>178</ele>
        <time>2023-06-16T19:59:19Z</time>
      </trkpt>
      <trkpt lat="48.86278" lon="-0.30142">
        <ele>179</ele>
        <time>2023-06-16T19:59:27Z</time>
      </trkpt>
      <trkpt lat="48.86278" lon="-0.30072">
        <ele>182</ele>
        <time>2023-06-16T19:59:38Z</time>
      </trkpt>
      <trkpt lat="48.86292" lon="-0.29979">
        <ele>182</ele>
        <time>2023-06-16T19:59:53Z</time>
      </trkpt>
      <trkpt lat="48.8631" lon="-0.29943">
        <ele>181</ele>
        <time>2023-06-16T19:59:59Z</time>
      </trkpt>
      <trkpt lat="48.86328" lon="-0.29866">
        <ele>178</ele>
        <time>2023-06-16T20:00:12Z</time>
      </trkpt>
      <trkpt lat="48.86356" lon="-0.29763">
        <ele>179</ele>
        <time>2023-06-16T20:00:29Z</time>
      </trkpt>
      <trkpt lat="48.8638" lon="-0.29688">
        <ele>180</ele>
        <time>2023-06-16T20:00:42Z</time>
      </trkpt>
      <trkpt lat="48.86244" lon="-0.29563">
        <ele>189</ele>
        <time>2023-06-16T20:01:19Z</time>
      </trkpt>
      <trkpt lat="48.86174" lon="-0.29515">
        <ele>192</ele>
        <time>2023-06-16T20:01:37Z</time>
      </trkpt>
      <trkpt lat="48.86133" lon="-0.29482">
        <ele>194</ele>
        <time>2023-06-16T20:01:48Z</time>
      </trkpt>
      <trkpt lat="48.86106" lon="-0.29467">
        <ele>196</ele>
        <time>2023-06-16T20:01:55Z</time>
      </trkpt>
      <trkpt lat="48.86062" lon="-0.29432">
        <ele>197</ele>
        <time>2023-06-16T20:02:06Z</time>
      </trkpt>
      <trkpt lat="48.86005" lon="-0.29355">
        <ele>198</ele>
        <time>2023-06-16T20:02:24Z</time>
      </trkpt>
      <trkpt lat="48.85983" lon="-0.29307">
        <ele>198</ele>
        <time>2023-06-16T20:02:33Z</time>
      </trkpt>
      <trkpt lat="48.8593" lon="-0.2937">
        <ele>197</ele>
        <time>2023-06-16T20:02:49Z</time>
      </trkpt>
      <trkpt lat="48.85868" lon="-0.29396">
        <ele>197</ele>
        <time>2023-06-16T20:03:04Z</time>
      </trkpt>
      <trkpt lat="48.85798" lon="-0.2942">
        <ele>194</ele>
        <time>2023-06-16T20:03:20Z</time>
      </trkpt>
      <trkpt lat="48.85774" lon="-0.29355">
        <ele>192</ele>
        <time>2023-06-16T20:03:32Z</time>
      </trkpt>
      <trkpt lat="48.85722" lon="-0.29192">
        <ele>187</ele>
        <time>2023-06-16T20:04:00Z</time>
      </trkpt>
      <trkpt lat="48.85701" lon="-0.29101">
        <ele>186</ele>
        <time>2023-06-16T20:04:15Z</time>
      </trkpt>
      <trkpt lat="48.857" lon="-0.29072">
        <ele>187</ele>
        <time>2023-06-16T20:04:19Z</time>
      </trkpt>
      <trkpt lat="48.85685" lon="-0.29027">
        <ele>186</ele>
        <time>2023-06-16T20:04:27Z</time>
      </trkpt>
      <trkpt lat="48.85648" lon="-0.28965">
        <ele>182</ele>
        <time>2023-06-16T20:04:40Z</time>
      </trkpt>
      <trkpt lat="48.8562" lon="-0.28907">
        <ele>179</ele>
        <time>2023-06-16T20:04:51Z</time>
      </trkpt>
      <trkpt lat="48.85575" lon="-0.28837">
        <ele>171</ele>
        <time>2023-06-16T20:05:06Z</time>
      </trkpt>
      <trkpt lat="48.8554" lon="-0.28808">
        <ele>164</ele>
        <time>2023-06-16T20:05:15Z</time>
      </trkpt>
      <trkpt lat="48.85491" lon="-0.28792">
        <ele>155</ele>
        <time>2023-06-16T20:05:27Z</time>
      </trkpt>
      <trkpt lat="48.85469" lon="-0.28731">
        <ele>149</ele>
        <time>2023-06-16T20:05:37Z</time>
      </trkpt>
      <trkpt lat="48.85424" lon="-0.28569">
        <ele>143</ele>
        <time>2023-06-16T20:06:04Z</time>
      </trkpt>
      <trkpt lat="48.85386" lon="-0.28473">
        <ele>136</ele>
        <time>2023-06-16T20:06:22Z</time>
      </trkpt>
      <trkpt lat="48.8536" lon="-0.28437">
        <ele>132</ele>
        <time>2023-06-16T20:06:30Z</time>
      </trkpt>
      <trkpt lat="48.8535" lon="-0.28428">
        <ele>131</ele>
        <time>2023-06-16T20:06:33Z</time>
      </trkpt>
      <trkpt lat="48.85359" lon="-0.28393">
        <ele>132</ele>
        <time>2023-06-16T20:06:38Z</time>
      </trkpt>
      <trkpt lat="48.85451" lon="-0.28215">
        <ele>143</ele>
        <time>2023-06-16T20:07:13Z</time>
      </trkpt>
      <trkpt lat="48.85468" lon="-0.28192">
        <ele>146</ele>
        <time>2023-06-16T20:07:18Z</time>
      </trkpt>
      <trkpt lat="48.8548" lon="-0.28162">
        <ele>148</ele>
        <time>2023-06-16T20:07:24Z</time>
      </trkpt>
      <trkpt lat="48.85499" lon="-0.28132">
        <ele>151</ele>
        <time>2023-06-16T20:07:30Z</time>
      </trkpt>
      <trkpt lat="48.85512" lon="-0.28101">
        <ele>154</ele>
        <time>2023-06-16T20:07:36Z</time>
      </trkpt>
      <trkpt lat="48.85532" lon="-0.28016">
        <ele>156</ele>
        <time>2023-06-16T20:07:50Z</time>
      </trkpt>
      <trkpt lat="48.85514" lon="-0.27865">
        <ele>152</ele>
        <time>2023-06-16T20:08:13Z</time>
      </trkpt>
      <trkpt lat="48.85492" lon="-0.27713">
        <ele>154</ele>
        <time>2023-06-16T20:08:37Z</time>
      </trkpt>
      <trkpt lat="48.85474" lon="-0.2763">
        <ele>154</ele>
        <time>2023-06-16T20:08:51Z</time>
      </trkpt>
      <trkpt lat="48.85471" lon="-0.27584">
        <ele>155</ele>
        <time>2023-06-16T20:08:58Z</time>
      </trkpt>
      <trkpt lat="48.85481" lon="-0.27529">
        <ele>154</ele>
        <time>2023-06-16T20:09:07Z</time>
      </trkpt>
      <trkpt lat="48.85504" lon="-0.27496">
        <ele>156</ele>
        <time>2023-06-16T20:09:14Z</time>
      </trkpt>
      <trkpt lat="48.85527" lon="-0.2749">
        <ele>158</ele>
        <time>2023-06-16T20:09:19Z</time>
      </trkpt>
      <trkpt lat="48.85544" lon="-0.27482">
        <ele>159</ele>
        <time>2023-06-16T20:09:24Z</time>
      </trkpt>
      <trkpt lat="48.85555" lon="-0.27466">
        <ele>158</ele>
        <time>2023-06-16T20:09:27Z</time>
      </trkpt>
      <trkpt lat="48.85556" lon="-0.27441">
        <ele>154</ele>
        <time>2023-06-16T20:09:31Z</time>
      </trkpt>
      <trkpt lat="48.85545" lon="-0.27414">
        <ele>150</ele>
        <time>2023-06-16T20:09:36Z</time>
      </trkpt>
      <trkpt lat="48.85499" lon="-0.27372">
        <ele>154</ele>
        <time>2023-06-16T20:09:48Z</time>
      </trkpt>
      <trkpt lat="48.85475" lon="-0.27333">
        <ele>155</ele>
        <time>2023-06-16T20:09:57Z</time>
      </trkpt>
      <trkpt lat="48.85462" lon="-0.27287">
        <ele>156</ele>
        <time>2023-06-16T20:10:04Z</time>
      </trkpt>
      <trkpt lat="48.85461" lon="-0.27244">
        <ele>159</ele>
        <time>2023-06-16T20:10:11Z</time>
      </trkpt>
      <trkpt lat="48.85465" lon="-0.27208">
        <ele>160</ele>
        <time>2023-06-16T20:10:16Z</time>
      </trkpt>
      <trkpt lat="48.85486" lon="-0.27145">
        <ele>166</ele>
        <time>2023-06-16T20:10:27Z</time>
      </trkpt>
      <trkpt lat="48.85505" lon="-0.27059">
        <ele>168</ele>
        <time>2023-06-16T20:10:41Z</time>
      </trkpt>
      <trkpt lat="48.8551" lon="-0.27016">
        <ele>166</ele>
        <time>2023-06-16T20:10:48Z</time>
      </trkpt>
      <trkpt lat="48.85512" lon="-0.26961">
        <ele>167</ele>
        <time>2023-06-16T20:10:56Z</time>
      </trkpt>
      <trkpt lat="48.85495" lon="-0.26803">
        <ele>167</ele>
        <time>2023-06-16T20:11:21Z</time>
      </trkpt>
      <trkpt lat="48.85469" lon="-0.26777">
        <ele>160</ele>
        <time>2023-06-16T20:11:28Z</time>
      </trkpt>
      <trkpt lat="48.85409" lon="-0.2667">
        <ele>153</ele>
        <time>2023-06-16T20:11:50Z</time>
      </trkpt>
      <trkpt lat="48.85397" lon="-0.26653">
        <ele>151</ele>
        <time>2023-06-16T20:11:54Z</time>
      </trkpt>
      <trkpt lat="48.85393" lon="-0.26611">
        <ele>154</ele>
        <time>2023-06-16T20:12:00Z</time>
      </trkpt>
      <trkpt lat="48.854" lon="-0.26553">
        <ele>160</ele>
        <time>2023-06-16T20:12:09Z</time>
      </trkpt>
      <trkpt lat="48.85404" lon="-0.26481">
        <ele>164</ele>
        <time>2023-06-16T20:12:20Z</time>
      </trkpt>
      <trkpt lat="48.85414" lon="-0.26386">
        <ele>170</ele>
        <time>2023-06-16T20:12:35Z</time>
      </trkpt>
      <trkpt lat="48.85426" lon="-0.26345">
        <ele>172</ele>
        <time>2023-06-16T20:12:42Z</time>
      </trkpt>
      <trkpt lat="48.85447" lon="-0.26326">
        <ele>175</ele>
        <time>2023-06-16T20:12:48Z</time>
      </trkpt>
      <trkpt lat="48.85462" lon="-0.26168">
        <ele>175</ele>
        <time>2023-06-16T20:13:12Z</time>
      </trkpt>
      <trkpt lat="48.85399" lon="-0.25997">
        <ele>176</ele>
        <time>2023-06-16T20:13:42Z</time>
      </trkpt>
      <trkpt lat="48.85371" lon="-0.25912">
        <ele>176</ele>
        <time>2023-06-16T20:13:57Z</time>
      </trkpt>
      <trkpt lat="48.85339" lon="-0.25851">
        <ele>175</ele>
        <time>2023-06-16T20:14:09Z</time>
      </trkpt>
      <trkpt lat="48.85305" lon="-0.25793">
        <ele>172</ele>
        <time>2023-06-16T20:14:21Z</time>
      </trkpt>
      <trkpt lat="48.8528" lon="-0.25729">
        <ele>171</ele>
        <time>2023-06-16T20:14:32Z</time>
      </trkpt>
      <trkpt lat="48.85248" lon="-0.25627">
        <ele>166</ele>
        <time>2023-06-16T20:14:50Z</time>
      </trkpt>
      <trkpt lat="48.85226" lon="-0.256">
        <ele>163</ele>
        <time>2023-06-16T20:14:56Z</time>
      </trkpt>
      <trkpt lat="48.85193" lon="-0.2557">
        <ele>159</ele>
        <time>2023-06-16T20:15:05Z</time>
      </trkpt>
      <trkpt lat="48.85153" lon="-0.25516">
        <ele>154</ele>
        <time>2023-06-16T20:15:18Z</time>
      </trkpt>
      <trkpt lat="48.85109" lon="-0.25489">
        <ele>150</ele>
        <time>2023-06-16T20:15:29Z</time>
      </trkpt>
      <trkpt lat="48.85069" lon="-0.25491">
        <ele>148</ele>
        <time>2023-06-16T20:15:38Z</time>
      </trkpt>
      <trkpt lat="48.85091" lon="-0.25461">
        <ele>149</ele>
        <time>2023-06-16T20:15:45Z</time>
      </trkpt>
      <trkpt lat="48.85078" lon="-0.25424">
        <ele>147</ele>
        <time>2023-06-16T20:15:52Z</time>
      </trkpt>
      <trkpt lat="48.85051" lon="-0.25417">
        <ele>145</ele>
        <time>2023-06-16T20:15:58Z</time>
      </trkpt>
      <trkpt lat="48.85047" lon="-0.25389">
        <ele>146</ele>
        <time>2023-06-16T20:16:02Z</time>
      </trkpt>
      <trkpt lat="48.85051" lon="-0.25329">
        <ele>149</ele>
        <time>2023-06-16T20:16:12Z</time>
      </trkpt>
      <trkpt lat="48.85103" lon="-0.25218">
        <ele>163</ele>
        <time>2023-06-16T20:16:33Z</time>
      </trkpt>
      <trkpt lat="48.8512" lon="-0.25138">
        <ele>169</ele>
        <time>2023-06-16T20:16:46Z</time>
      </trkpt>
      <trkpt lat="48.85126" lon="-0.24988">
        <ele>172</ele>
        <time>2023-06-16T20:17:09Z</time>
      </trkpt>
      <trkpt lat="48.85134" lon="-0.24934">
        <ele>174</ele>
        <time>2023-06-16T20:17:17Z</time>
      </trkpt>
      <trkpt lat="48.85156" lon="-0.24859">
        <ele>179</ele>
        <time>2023-06-16T20:17:30Z</time>
      </trkpt>
      <trkpt lat="48.85148" lon="-0.24766">
        <ele>178</ele>
        <time>2023-06-16T20:17:44Z</time>
      </trkpt>
      <trkpt lat="48.85105" lon="-0.24531">
        <ele>179</ele>
        <time>2023-06-16T20:18:22Z</time>
      </trkpt>
      <trkpt lat="48.85052" lon="-0.24216">
        <ele>173</ele>
        <time>2023-06-16T20:19:12Z</time>
      </trkpt>
      <trkpt lat="48.85044" lon="-0.24156">
        <ele>174</ele>
        <time>2023-06-16T20:19:21Z</time>
      </trkpt>
      <trkpt lat="48.84996" lon="-0.24068">
        <ele>171</ele>
        <time>2023-06-16T20:19:39Z</time>
      </trkpt>
      <trkpt lat="48.84933" lon="-0.23941">
        <ele>162</ele>
        <time>2023-06-16T20:20:03Z</time>
      </trkpt>
      <trkpt lat="48.84907" lon="-0.23906">
        <ele>160</ele>
        <time>2023-06-16T20:20:11Z</time>
      </trkpt>
      <trkpt lat="48.84917" lon="-0.23871">
        <ele>165</ele>
        <time>2023-06-16T20:20:17Z</time>
      </trkpt>
      <trkpt lat="48.84915" lon="-0.23813">
        <ele>170</ele>
        <time>2023-06-16T20:20:26Z</time>
      </trkpt>
      <trkpt lat="48.84869" lon="-0.23668">
        <ele>166</ele>
        <time>2023-06-16T20:20:51Z</time>
      </trkpt>
      <trkpt lat="48.84849" lon="-0.23613">
        <ele>163</ele>
        <time>2023-06-16T20:21:00Z</time>
      </trkpt>
      <trkpt lat="48.84824" lon="-0.23498">
        <ele>161</ele>
        <time>2023-06-16T20:21:19Z</time>
      </trkpt>
      <trkpt lat="48.84787" lon="-0.23254">
        <ele>160</ele>
        <time>2023-06-16T20:21:57Z</time>
      </trkpt>
      <trkpt lat="48.84767" lon="-0.23208">
        <ele>156</ele>
        <time>2023-06-16T20:22:06Z</time>
      </trkpt>
      <trkpt lat="48.84721" lon="-0.23153">
        <ele>154</ele>
        <time>2023-06-16T20:22:20Z</time>
      </trkpt>
      <trkpt lat="48.84709" lon="-0.23132">
        <ele>155</ele>
        <time>2023-06-16T20:22:24Z</time>
      </trkpt>
      <trkpt lat="48.84712" lon="-0.23113">
        <ele>157</ele>
        <time>2023-06-16T20:22:27Z</time>
      </trkpt>
      <trkpt lat="48.84736" lon="-0.2308">
        <ele>161</ele>
        <time>2023-06-16T20:22:34Z</time>
      </trkpt>
      <trkpt lat="48.84729" lon="-0.23052">
        <ele>164</ele>
        <time>2023-06-16T20:22:39Z</time>
      </trkpt>
      <trkpt lat="48.84704" lon="-0.22992">
        <ele>167</ele>
        <time>2023-06-16T20:22:50Z</time>
      </trkpt>
      <trkpt lat="48.84629" lon="-0.22755">
        <ele>172</ele>
        <time>2023-06-16T20:23:30Z</time>
      </trkpt>
      <trkpt lat="48.8459" lon="-0.22777">
        <ele>166</ele>
        <time>2023-06-16T20:23:40Z</time>
      </trkpt>
      <trkpt lat="48.84579" lon="-0.22732">
        <ele>167</ele>
        <time>2023-06-16T20:23:47Z</time>
      </trkpt>
      <trkpt lat="48.84572" lon="-0.22667">
        <ele>169</ele>
        <time>2023-06-16T20:23:58Z</time>
      </trkpt>
      <trkpt lat="48.84557" lon="-0.22587">
        <ele>169</ele>
        <time>2023-06-16T20:24:10Z</time>
      </trkpt>
      <trkpt lat="48.84552" lon="-0.22509">
        <ele>171</ele>
        <time>2023-06-16T20:24:22Z</time>
      </trkpt>
      <trkpt lat="48.84529" lon="-0.2243">
        <ele>171</ele>
        <time>2023-06-16T20:24:36Z</time>
      </trkpt>
      <trkpt lat="48.84522" lon="-0.2238">
        <ele>172</ele>
        <time>2023-06-16T20:24:44Z</time>
      </trkpt>
      <trkpt lat="48.84507" lon="-0.22332">
        <ele>173</ele>
        <time>2023-06-16T20:24:52Z</time>
      </trkpt>
      <trkpt lat="48.84485" lon="-0.22286">
        <ele>171</ele>
        <time>2023-06-16T20:25:00Z</time>
      </trkpt>
      <trkpt lat="48.84341" lon="-0.22044">
        <ele>162</ele>
        <time>2023-06-16T20:25:51Z</time>
      </trkpt>
      <trkpt lat="48.84319" lon="-0.21988">
        <ele>159</ele>
        <time>2023-06-16T20:26:01Z</time>
      </trkpt>
      <trkpt lat="48.84311" lon="-0.21947">
        <ele>160</ele>
        <time>2023-06-16T20:26:07Z</time>
      </trkpt>
      <trkpt lat="48.843" lon="-0.21939">
        <ele>159</ele>
        <time>2023-06-16T20:26:10Z</time>
      </trkpt>
      <trkpt lat="48.84303" lon="-0.21899">
        <ele>161</ele>
        <time>2023-06-16T20:26:16Z</time>
      </trkpt>
      <trkpt lat="48.84298" lon="-0.21723">
        <ele>173</ele>
        <time>2023-06-16T20:26:43Z</time>
      </trkpt>
      <trkpt lat="48.84309" lon="-0.21637">
        <ele>177</ele>
        <time>2023-06-16T20:26:57Z</time>
      </trkpt>
      <trkpt lat="48.84325" lon="-0.21597">
        <ele>178</ele>
        <time>2023-06-16T20:27:04Z</time>
      </trkpt>
      <trkpt lat="48.84285" lon="-0.21452">
        <ele>179</ele>
        <time>2023-06-16T20:27:28Z</time>
      </trkpt>
      <trkpt lat="48.84203" lon="-0.21124">
        <ele>177</ele>
        <time>2023-06-16T20:28:22Z</time>
      </trkpt>
      <trkpt lat="48.84177" lon="-0.21095">
        <ele>178</ele>
        <time>2023-06-16T20:28:30Z</time>
      </trkpt>
      <trkpt lat="48.84139" lon="-0.2106">
        <ele>177</ele>
        <time>2023-06-16T20:28:40Z</time>
      </trkpt>
      <trkpt lat="48.84095" lon="-0.20995">
        <ele>178</ele>
        <time>2023-06-16T20:28:54Z</time>
      </trkpt>
      <trkpt lat="48.8404" lon="-0.20899">
        <ele>176</ele>
        <time>2023-06-16T20:29:14Z</time>
      </trkpt>
      <trkpt lat="48.8407" lon="-0.20864">
        <ele>178</ele>
        <time>2023-06-16T20:29:23Z</time>
      </trkpt>
      <trkpt lat="48.84368" lon="-0.20609">
        <ele>187</ele>
        <time>2023-06-16T20:30:43Z</time>
      </trkpt>
      <trkpt lat="48.8439" lon="-0.20607">
        <ele>188</ele>
        <time>2023-06-16T20:30:48Z</time>
      </trkpt>
      <trkpt lat="48.8453" lon="-0.2056">
        <ele>201</ele>
        <time>2023-06-16T20:31:21Z</time>
      </trkpt>
      <trkpt lat="48.84567" lon="-0.20538">
        <ele>206</ele>
        <time>2023-06-16T20:31:30Z</time>
      </trkpt>
      <trkpt lat="48.84601" lon="-0.20508">
        <ele>211</ele>
        <time>2023-06-16T20:31:40Z</time>
      </trkpt>
      <trkpt lat="48.84624" lon="-0.20494">
        <ele>213</ele>
        <time>2023-06-16T20:31:45Z</time>
      </trkpt>
      <trkpt lat="48.84653" lon="-0.20492">
        <ele>215</ele>
        <time>2023-06-16T20:31:52Z</time>
      </trkpt>
      <trkpt lat="48.84674" lon="-0.205">
        <ele>217</ele>
        <time>2023-06-16T20:31:57Z</time>
      </trkpt>
      <trkpt lat="48.84636" lon="-0.20438">
        <ele>216</ele>
        <time>2023-06-16T20:32:10Z</time>
      </trkpt>
      <trkpt lat="48.84605" lon="-0.20369">
        <ele>218</ele>
        <time>2023-06-16T20:32:23Z</time>
      </trkpt>
      <trkpt lat="48.84581" lon="-0.20325">
        <ele>219</ele>
        <time>2023-06-16T20:32:32Z</time>
      </trkpt>
      <trkpt lat="48.84548" lon="-0.20228">
        <ele>218</ele>
        <time>2023-06-16T20:32:49Z</time>
      </trkpt>
      <trkpt lat="48.84488" lon="-0.20259">
        <ele>211</ele>
        <time>2023-06-16T20:33:03Z</time>
      </trkpt>
      <trkpt lat="48.84421" lon="-0.20263">
        <ele>205</ele>
        <time>2023-06-16T20:33:19Z</time>
      </trkpt>
      <trkpt lat="48.84372" lon="-0.20275">
        <ele>199</ele>
        <time>2023-06-16T20:33:31Z</time>
      </trkpt>
      <trkpt lat="48.84323" lon="-0.20302">
        <ele>194</ele>
        <time>2023-06-16T20:33:43Z</time>
      </trkpt>
      <trkpt lat="48.84218" lon="-0.20076">
        <ele>189</ele>
        <time>2023-06-16T20:34:25Z</time>
      </trkpt>
      <trkpt lat="48.84232" lon="-0.20037">
        <ele>191</ele>
        <time>2023-06-16T20:34:32Z</time>
      </trkpt>
      <trkpt lat="48.84289" lon="-0.19979">
        <ele>196</ele>
        <time>2023-06-16T20:34:48Z</time>
      </trkpt>
      <trkpt lat="48.84317" lon="-0.19936">
        <ele>201</ele>
        <time>2023-06-16T20:34:58Z</time>
      </trkpt>
      <trkpt lat="48.84332" lon="-0.19889">
        <ele>206</ele>
        <time>2023-06-16T20:35:06Z</time>
      </trkpt>
      <trkpt lat="48.84346" lon="-0.19797">
        <ele>215</ele>
        <time>2023-06-16T20:35:20Z</time>
      </trkpt>
      <trkpt lat="48.84344" lon="-0.19767">
        <ele>217</ele>
        <time>2023-06-16T20:35:25Z</time>
      </trkpt>
      <trkpt lat="48.84332" lon="-0.19737">
        <ele>220</ele>
        <time>2023-06-16T20:35:30Z</time>
      </trkpt>
      <trkpt lat="48.84295" lon="-0.19664">
        <ele>221</ele>
        <time>2023-06-16T20:35:44Z</time>
      </trkpt>
      <trkpt lat="48.84256" lon="-0.19577">
        <ele>223</ele>
        <time>2023-06-16T20:36:00Z</time>
      </trkpt>
      <trkpt lat="48.84242" lon="-0.19537">
        <ele>222</ele>
        <time>2023-06-16T20:36:07Z</time>
      </trkpt>
      <trkpt lat="48.84221" lon="-0.1949">
        <ele>221</ele>
        <time>2023-06-16T20:36:16Z</time>
      </trkpt>
      <trkpt lat="48.84196" lon="-0.19444">
        <ele>221</ele>
        <time>2023-06-16T20:36:25Z</time>
      </trkpt>
      <trkpt lat="48.8417" lon="-0.19384">
        <ele>222</ele>
        <time>2023-06-16T20:36:36Z</time>
      </trkpt>
      <trkpt lat="48.84128" lon="-0.19311">
        <ele>223</ele>
        <time>2023-06-16T20:36:51Z</time>
      </trkpt>
      <trkpt lat="48.84093" lon="-0.19242">
        <ele>226</ele>
        <time>2023-06-16T20:37:05Z</time>
      </trkpt>
      <trkpt lat="48.84064" lon="-0.19168">
        <ele>225</ele>
        <time>2023-06-16T20:37:18Z</time>
      </trkpt>
      <trkpt lat="48.84023" lon="-0.19074">
        <ele>225</ele>
        <time>2023-06-16T20:37:35Z</time>
      </trkpt>
      <trkpt lat="48.83926" lon="-0.18883">
        <ele>232</ele>
        <time>2023-06-16T20:38:12Z</time>
      </trkpt>
      <trkpt lat="48.83962" lon="-0.18848">
        <ele>234</ele>
        <time>2023-06-16T20:38:22Z</time>
      </trkpt>
      <trkpt lat="48.83991" lon="-0.18825">
        <ele>234</ele>
        <time>2023-06-16T20:38:30Z</time>
      </trkpt>
      <trkpt lat="48.84053" lon="-0.18757">
        <ele>233</ele>
        <time>2023-06-16T20:38:48Z</time>
      </trkpt>
      <trkpt lat="48.84078" lon="-0.18718">
        <ele>233</ele>
        <time>2023-06-16T20:38:56Z</time>
      </trkpt>
      <trkpt lat="48.84107" lon="-0.18665">
        <ele>233</ele>
        <time>2023-06-16T20:39:07Z</time>
      </trkpt>
      <trkpt lat="48.84129" lon="-0.18605">
        <ele>233</ele>
        <time>2023-06-16T20:39:17Z</time>
      </trkpt>
      <trkpt lat="48.84149" lon="-0.18535">
        <ele>231</ele>
        <time>2023-06-16T20:39:29Z</time>
      </trkpt>
      <trkpt lat="48.84205" lon="-0.1845">
        <ele>230</ele>
        <time>2023-06-16T20:39:48Z</time>
      </trkpt>
      <trkpt lat="48.8423" lon="-0.18407">
        <ele>232</ele>
        <time>2023-06-16T20:39:56Z</time>
      </trkpt>
      <trkpt lat="48.84235" lon="-0.18365">
        <ele>235</ele>
        <time>2023-06-16T20:40:03Z</time>
      </trkpt>
      <trkpt lat="48.84249" lon="-0.18309">
        <ele>239</ele>
        <time>2023-06-16T20:40:12Z</time>
      </trkpt>
      <trkpt lat="48.84271" lon="-0.18249">
        <ele>242</ele>
        <time>2023-06-16T20:40:23Z</time>
      </trkpt>
      <trkpt lat="48.84353" lon="-0.18142">
        <ele>245</ele>
        <time>2023-06-16T20:40:48Z</time>
      </trkpt>
      <trkpt lat="48.84377" lon="-0.18195">
        <ele>245</ele>
        <time>2023-06-16T20:40:58Z</time>
      </trkpt>
      <trkpt lat="48.84427" lon="-0.18292">
        <ele>245</ele>
        <time>2023-06-16T20:41:17Z</time>
      </trkpt>
      <trkpt lat="48.84474" lon="-0.18365">
        <ele>243</ele>
        <time>2023-06-16T20:41:32Z</time>
      </trkpt>
      <trkpt lat="48.84519" lon="-0.1845">
        <ele>243</ele>
        <time>2023-06-16T20:41:49Z</time>
      </trkpt>
      <trkpt lat="48.84541" lon="-0.18507">
        <ele>243</ele>
        <time>2023-06-16T20:41:59Z</time>
      </trkpt>
      <trkpt lat="48.84678" lon="-0.1876">
        <ele>237</ele>
        <time>2023-06-16T20:42:50Z</time>
      </trkpt>
      <trkpt lat="48.848" lon="-0.18999">
        <ele>236</ele>
        <time>2023-06-16T20:43:36Z</time>
      </trkpt>
      <trkpt lat="48.84876" lon="-0.18937">
        <ele>231</ele>
        <time>2023-06-16T20:43:56Z</time>
      </trkpt>
      <trkpt lat="48.84978" lon="-0.19184">
        <ele>231</ele>
        <time>2023-06-16T20:44:41Z</time>
      </trkpt>
      <trkpt lat="48.85014" lon="-0.19262">
        <ele>230</ele>
        <time>2023-06-16T20:44:56Z</time>
      </trkpt>
      <trkpt lat="48.85013" lon="-0.19289">
        <ele>230</ele>
        <time>2023-06-16T20:45:00Z</time>
      </trkpt>
      <trkpt lat="48.85108" lon="-0.19521">
        <ele>228</ele>
        <time>2023-06-16T20:45:42Z</time>
      </trkpt>
      <trkpt lat="48.8515" lon="-0.19603">
        <ele>226</ele>
        <time>2023-06-16T20:45:58Z</time>
      </trkpt>
      <trkpt lat="48.85169" lon="-0.19664">
        <ele>225</ele>
        <time>2023-06-16T20:46:08Z</time>
      </trkpt>
      <trkpt lat="48.8518" lon="-0.19712">
        <ele>224</ele>
        <time>2023-06-16T20:46:16Z</time>
      </trkpt>
      <trkpt lat="48.85237" lon="-0.19856">
        <ele>223</ele>
        <time>2023-06-16T20:46:42Z</time>
      </trkpt>
      <trkpt lat="48.85255" lon="-0.19935">
        <ele>223</ele>
        <time>2023-06-16T20:46:55Z</time>
      </trkpt>
      <trkpt lat="48.85277" lon="-0.20002">
        <ele>223</ele>
        <time>2023-06-16T20:47:06Z</time>
      </trkpt>
      <trkpt lat="48.85302" lon="-0.20053">
        <ele>223</ele>
        <time>2023-06-16T20:47:16Z</time>
      </trkpt>
      <trkpt lat="48.85326" lon="-0.20077">
        <ele>224</ele>
        <time>2023-06-16T20:47:23Z</time>
      </trkpt>
      <trkpt lat="48.85362" lon="-0.20146">
        <ele>222</ele>
        <time>2023-06-16T20:47:36Z</time>
      </trkpt>
      <trkpt lat="48.85394" lon="-0.20199">
        <ele>223</ele>
        <time>2023-06-16T20:47:47Z</time>
      </trkpt>
      <trkpt lat="48.85433" lon="-0.20257">
        <ele>223</ele>
        <time>2023-06-16T20:48:00Z</time>
      </trkpt>
      <trkpt lat="48.85447" lon="-0.20287">
        <ele>223</ele>
        <time>2023-06-16T20:48:06Z</time>
      </trkpt>
      <trkpt lat="48.85485" lon="-0.20392">
        <ele>224</ele>
        <time>2023-06-16T20:48:24Z</time>
      </trkpt>
      <trkpt lat="48.85536" lon="-0.20509">
        <ele>223</ele>
        <time>2023-06-16T20:48:46Z</time>
      </trkpt>
      <trkpt lat="48.85566" lon="-0.20589">
        <ele>222</ele>
        <time>2023-06-16T20:49:00Z</time>
      </trkpt>
      <trkpt lat="48.85631" lon="-0.20694">
        <ele>220</ele>
        <time>2023-06-16T20:49:22Z</time>
      </trkpt>
      <trkpt lat="48.85684" lon="-0.20792">
        <ele>220</ele>
        <time>2023-06-16T20:49:41Z</time>
      </trkpt>
      <trkpt lat="48.85714" lon="-0.2084">
        <ele>220</ele>
        <time>2023-06-16T20:49:52Z</time>
      </trkpt>
      <trkpt lat="48.85732" lon="-0.20893">
        <ele>220</ele>
        <time>2023-06-16T20:50:01Z</time>
      </trkpt>
      <trkpt lat="48.85748" lon="-0.20929">
        <ele>220</ele>
        <time>2023-06-16T20:50:07Z</time>
      </trkpt>
      <trkpt lat="48.85803" lon="-0.21021">
        <ele>220</ele>
        <time>2023-06-16T20:50:27Z</time>
      </trkpt>
      <trkpt lat="48.8587" lon="-0.21142">
        <ele>220</ele>
        <time>2023-06-16T20:50:51Z</time>
      </trkpt>
      <trkpt lat="48.85898" lon="-0.21214">
        <ele>221</ele>
        <time>2023-06-16T20:51:04Z</time>
      </trkpt>
      <trkpt lat="48.85941" lon="-0.2129">
        <ele>219</ele>
        <time>2023-06-16T20:51:19Z</time>
      </trkpt>
      <trkpt lat="48.86055" lon="-0.21507">
        <ele>211</ele>
        <time>2023-06-16T20:52:02Z</time>
      </trkpt>
      <trkpt lat="48.8616" lon="-0.21721">
        <ele>209</ele>
        <time>2023-06-16T20:52:43Z</time>
      </trkpt>
      <trkpt lat="48.86245" lon="-0.21896">
        <ele>209</ele>
        <time>2023-06-16T20:53:16Z</time>
      </trkpt>
      <trkpt lat="48.86324" lon="-0.22075">
        <ele>209</ele>
        <time>2023-06-16T20:53:49Z</time>
      </trkpt>
      <trkpt lat="48.86366" lon="-0.22183">
        <ele>208</ele>
        <time>2023-06-16T20:54:09Z</time>
      </trkpt>
      <trkpt lat="48.86463" lon="-0.22452">
        <ele>208</ele>
        <time>2023-06-16T20:54:56Z</time>
      </trkpt>
      <trkpt lat="48.8651" lon="-0.22603">
        <ele>208</ele>
        <time>2023-06-16T20:55:21Z</time>
      </trkpt>
      <trkpt lat="48.86549" lon="-0.22746">
        <ele>207</ele>
        <time>2023-06-16T20:55:45Z</time>
      </trkpt>
      <trkpt lat="48.86567" lon="-0.22797">
        <ele>207</ele>
        <time>2023-06-16T20:55:54Z</time>
      </trkpt>
      <trkpt lat="48.86611" lon="-0.22958">
        <ele>207</ele>
        <time>2023-06-16T20:56:21Z</time>
      </trkpt>
      <trkpt lat="48.86657" lon="-0.22918">
        <ele>206</ele>
        <time>2023-06-16T20:56:33Z</time>
      </trkpt>
      <trkpt lat="48.86773" lon="-0.22752">
        <ele>201</ele>
        <time>2023-06-16T20:57:10Z</time>
      </trkpt>
      <trkpt lat="48.86812" lon="-0.22703">
        <ele>201</ele>
        <time>2023-06-16T20:57:22Z</time>
      </trkpt>
      <trkpt lat="48.86839" lon="-0.22662">
        <ele>200</ele>
        <time>2023-06-16T20:57:31Z</time>
      </trkpt>
      <trkpt lat="48.86893" lon="-0.22592">
        <ele>199</ele>
        <time>2023-06-16T20:57:48Z</time>
      </trkpt>
      <trkpt lat="48.8697" lon="-0.22501">
        <ele>201</ele>
        <time>2023-06-16T20:58:11Z</time>
      </trkpt>
      <trkpt lat="48.86984" lon="-0.22445">
        <ele>202</ele>
        <time>2023-06-16T20:58:20Z</time>
      </trkpt>
      <trkpt lat="48.86983" lon="-0.22432">
        <ele>202</ele>
        <time>2023-06-16T20:58:22Z</time>
      </trkpt>
      <trkpt lat="48.86998" lon="-0.2242">
        <ele>203</ele>
        <time>2023-06-16T20:58:26Z</time>
      </trkpt>
      <trkpt lat="48.87041" lon="-0.22411">
        <ele>201</ele>
        <time>2023-06-16T20:58:36Z</time>
      </trkpt>
      <trkpt lat="48.87101" lon="-0.22327">
        <ele>198</ele>
        <time>2023-06-16T20:58:55Z</time>
      </trkpt>
      <trkpt lat="48.87301" lon="-0.22136">
        <ele>190</ele>
        <time>2023-06-16T20:59:50Z</time>
      </trkpt>
      <trkpt lat="48.87449" lon="-0.21978">
        <ele>185</ele>
        <time>2023-06-16T21:00:32Z</time>
      </trkpt>
      <trkpt lat="48.87583" lon="-0.21848">
        <ele>180</ele>
        <time>2023-06-16T21:01:09Z</time>
      </trkpt>
      <trkpt lat="48.87621" lon="-0.21797">
        <ele>180</ele>
        <time>2023-06-16T21:01:21Z</time>
      </trkpt>
      <trkpt lat="48.87663" lon="-0.21698">
        <ele>178</ele>
        <time>2023-06-16T21:01:39Z</time>
      </trkpt>
      <trkpt lat="48.87717" lon="-0.2159">
        <ele>178</ele>
        <time>2023-06-16T21:02:00Z</time>
      </trkpt>
      <trkpt lat="48.87767" lon="-0.21498">
        <ele>176</ele>
        <time>2023-06-16T21:02:18Z</time>
      </trkpt>
      <trkpt lat="48.87959" lon="-0.212">
        <ele>174</ele>
        <time>2023-06-16T21:03:23Z</time>
      </trkpt>
      <trkpt lat="48.88035" lon="-0.21086">
        <ele>174</ele>
        <time>2023-06-16T21:03:47Z</time>
      </trkpt>
      <trkpt lat="48.88128" lon="-0.20932">
        <ele>173</ele>
        <time>2023-06-16T21:04:20Z</time>
      </trkpt>
      <trkpt lat="48.8816" lon="-0.20866">
        <ele>174</ele>
        <time>2023-06-16T21:04:32Z</time>
      </trkpt>
      <trkpt lat="48.88144" lon="-0.20832">
        <ele>175</ele>
        <time>2023-06-16T21:04:39Z</time>
      </trkpt>
      <trkpt lat="48.88124" lon="-0.20804">
        <ele>176</ele>
        <time>2023-06-16T21:04:45Z</time>
      </trkpt>
      <trkpt lat="48.882" lon="-0.20706">
        <ele>175</ele>
        <time>2023-06-16T21:05:08Z</time>
      </trkpt>
      <trkpt lat="48.88207" lon="-0.20669">
        <ele>175</ele>
        <time>2023-06-16T21:05:14Z</time>
      </trkpt>
      <trkpt lat="48.88228" lon="-0.20669">
        <ele>175</ele>
        <time>2023-06-16T21:05:19Z</time>
      </trkpt>
      <trkpt lat="48.88266" lon="-0.20626">
        <ele>174</ele>
        <time>2023-06-16T21:05:30Z</time>
      </trkpt>
      <trkpt lat="48.88325" lon="-0.20591">
        <ele>173</ele>
        <time>2023-06-16T21:05:45Z</time>
      </trkpt>
      <trkpt lat="48.88349" lon="-0.20567">
        <ele>172</ele>
        <time>2023-06-16T21:05:52Z</time>
      </trkpt>
      <trkpt lat="48.88357" lon="-0.20589">
        <ele>172</ele>
        <time>2023-06-16T21:05:55Z</time>
      </trkpt>
      <trkpt lat="48.88407" lon="-0.20571">
        <ele>169</ele>
        <time>2023-06-16T21:06:07Z</time>
      </trkpt>
      <trkpt lat="48.88427" lon="-0.20553">
        <ele>168</ele>
        <time>2023-06-16T21:06:13Z</time>
      </trkpt>
      <trkpt lat="48.88454" lon="-0.20496">
        <ele>166</ele>
        <time>2023-06-16T21:06:24Z</time>
      </trkpt>
      <trkpt lat="48.88471" lon="-0.20454">
        <ele>164</ele>
        <time>2023-06-16T21:06:31Z</time>
      </trkpt>
      <trkpt lat="48.88549" lon="-0.20354">
        <ele>161</ele>
        <time>2023-06-16T21:06:55Z</time>
      </trkpt>
      <trkpt lat="48.88588" lon="-0.20295">
        <ele>162</ele>
        <time>2023-06-16T21:07:08Z</time>
      </trkpt>
      <trkpt lat="48.88609" lon="-0.20276">
        <ele>162</ele>
        <time>2023-06-16T21:07:14Z</time>
      </trkpt>
      <trkpt lat="48.88698" lon="-0.20237">
        <ele>160</ele>
        <time>2023-06-16T21:07:35Z</time>
      </trkpt>
      <trkpt lat="48.88777" lon="-0.20218">
        <ele>156</ele>
        <time>2023-06-16T21:07:54Z</time>
      </trkpt>
      <trkpt lat="48.88866" lon="-0.20153">
        <ele>157</ele>
        <time>2023-06-16T21:08:17Z</time>
      </trkpt>
      <trkpt lat="48.88908" lon="-0.2015">
        <ele>158</ele>
        <time>2023-06-16T21:08:27Z</time>
      </trkpt>
      <trkpt lat="48.88945" lon="-0.20165">
        <ele>158</ele>
        <time>2023-06-16T21:08:36Z</time>
      </trkpt>
      <trkpt lat="48.88995" lon="-0.20195">
        <ele>156</ele>
        <time>2023-06-16T21:08:48Z</time>
      </trkpt>
      <trkpt lat="48.89035" lon="-0.20229">
        <ele>154</ele>
        <time>2023-06-16T21:08:59Z</time>
      </trkpt>
      <trkpt lat="48.89058" lon="-0.20256">
        <ele>153</ele>
        <time>2023-06-16T21:09:06Z</time>
      </trkpt>
      <trkpt lat="48.89096" lon="-0.20311">
        <ele>149</ele>
        <time>2023-06-16T21:09:18Z</time>
      </trkpt>
      <trkpt lat="48.89127" lon="-0.20307">
        <ele>148</ele>
        <time>2023-06-16T21:09:25Z</time>
      </trkpt>
      <trkpt lat="48.8915" lon="-0.203">
        <ele>147</ele>
        <time>2023-06-16T21:09:31Z</time>
      </trkpt>
      <trkpt lat="48.89178" lon="-0.20235">
        <ele>145</ele>
        <time>2023-06-16T21:09:43Z</time>
      </trkpt>
      <trkpt lat="48.89226" lon="-0.20134">
        <ele>141</ele>
        <time>2023-06-16T21:10:02Z</time>
      </trkpt>
      <trkpt lat="48.89279" lon="-0.2019">
        <ele>140</ele>
        <time>2023-06-16T21:10:17Z</time>
      </trkpt>
      <trkpt lat="48.89268" lon="-0.20225">
        <ele>141</ele>
        <time>2023-06-16T21:10:23Z</time>
      </trkpt>
      <trkpt lat="48.89269" lon="-0.2026">
        <ele>141</ele>
        <time>2023-06-16T21:10:28Z</time>
      </trkpt>
      <trkpt lat="48.89278" lon="-0.2028">
        <ele>142</ele>
        <time>2023-06-16T21:10:32Z</time>
      </trkpt>
      <trkpt lat="48.89259" lon="-0.20411">
        <ele>145</ele>
        <time>2023-06-16T21:10:53Z</time>
      </trkpt>
      <trkpt lat="48.89259" lon="-0.20406">
        <ele>144</ele>
        <time>2023-06-16T21:10:53Z</time>
      </trkpt>
    </trkseg>
  </trk>
</gpx>